sensor_id;sensor_type;location;lat;lon;timestamp;P1;durP1;ratioP1;P2;durP2;ratioP2
83814;SDS011;73829;53.826;-3.034;2024-02-26T00:02:25;3.30;;;1.30;;
83814;SDS011;73829;53.826;-3.034;2024-02-26T00:04:56;4.10;;;1.50;;
83814;SDS011;73829;53.826;-3.034;2024-02-26T00:07:30;4.20;;;1.60;;
83814;SDS011;73829;53.826;-3.034;2024-02-26T00:10:01;3.30;;;1.30;;
83814;SDS011;73829;53.826;-3.034;2024-02-26T00:12:33;3.90;;;1.80;;
83814;SDS011;73829;53.826;-3.034;2024-02-26T00:15:04;3.70;;;1.60;;
83814;SDS011;73829;53.826;-3.034;2024-02-26T00:17:36;4.50;;;1.60;;
83814;SDS011;73829;53.826;-3.034;2024-02-26T00:20:08;4.60;;;1.50;;
83814;SDS011;73829;53.826;-3.034;2024-02-26T00:22:42;3.40;;;1.20;;
83814;SDS011;73829;53.826;-3.034;2024-02-26T00:25:13;3.10;;;1.20;;
83814;SDS011;73829;53.826;-3.034;2024-02-26T00:27:45;3.90;;;1.50;;
83814;SDS011;73829;53.826;-3.034;2024-02-26T00:30:16;4.10;;;1.50;;
83814;SDS011;73829;53.826;-3.034;2024-02-26T00:32:47;3.70;;;1.60;;
83814;SDS011;73829;53.826;-3.034;2024-02-26T00:35:18;4.60;;;1.70;;
83814;SDS011;73829;53.826;-3.034;2024-02-26T00:37:49;3.80;;;1.40;;
83814;SDS011;73829;53.826;-3.034;2024-02-26T00:40:20;3.50;;;1.20;;
83814;SDS011;73829;53.826;-3.034;2024-02-26T00:42:51;4.20;;;1.70;;
83814;SDS011;73829;53.826;-3.034;2024-02-26T00:45:22;3.30;;;1.30;;
83814;SDS011;73829;53.826;-3.034;2024-02-26T00:47:53;4.20;;;1.60;;
83814;SDS011;73829;53.826;-3.034;2024-02-26T00:50:25;3.20;;;1.40;;
83814;SDS011;73829;53.826;-3.034;2024-02-26T00:52:56;3.90;;;1.60;;
83814;SDS011;73829;53.826;-3.034;2024-02-26T00:55:27;3.90;;;1.40;;
83814;SDS011;73829;53.826;-3.034;2024-02-26T00:57:58;3.00;;;1.20;;
83814;SDS011;73829;53.826;-3.034;2024-02-26T01:00:29;3.90;;;1.50;;
83814;SDS011;73829;53.826;-3.034;2024-02-26T01:03:00;3.10;;;1.30;;
83814;SDS011;73829;53.826;-3.034;2024-02-26T01:05:32;2.70;;;1.20;;
83814;SDS011;73829;53.826;-3.034;2024-02-26T01:08:05;3.80;;;1.30;;
83814;SDS011;73829;53.826;-3.034;2024-02-26T01:10:37;4.50;;;1.30;;
83814;SDS011;73829;53.826;-3.034;2024-02-26T01:13:08;3.90;;;1.20;;
83814;SDS011;73829;53.826;-3.034;2024-02-26T01:15:39;3.90;;;1.40;;
83814;SDS011;73829;53.826;-3.034;2024-02-26T01:18:11;3.50;;;1.00;;
83814;SDS011;73829;53.826;-3.034;2024-02-26T01:20:43;3.70;;;1.40;;
83814;SDS011;73829;53.826;-3.034;2024-02-26T01:23:14;3.30;;;1.30;;
83814;SDS011;73829;53.826;-3.034;2024-02-26T01:25:45;3.20;;;1.20;;
83814;SDS011;73829;53.826;-3.034;2024-02-26T01:28:17;3.80;;;1.20;;
83814;SDS011;73829;53.826;-3.034;2024-02-26T01:30:48;3.00;;;1.20;;
83814;SDS011;73829;53.826;-3.034;2024-02-26T01:33:19;3.20;;;1.40;;
83814;SDS011;73829;53.826;-3.034;2024-02-26T01:35:51;3.60;;;1.30;;
83814;SDS011;73829;53.826;-3.034;2024-02-26T01:38:22;3.50;;;1.30;;
83814;SDS011;73829;53.826;-3.034;2024-02-26T01:40:53;4.00;;;1.30;;
83814;SDS011;73829;53.826;-3.034;2024-02-26T01:43:24;3.00;;;1.10;;
83814;SDS011;73829;53.826;-3.034;2024-02-26T01:45:55;5.30;;;1.00;;
83814;SDS011;73829;53.826;-3.034;2024-02-26T01:48:27;3.10;;;1.10;;
83814;SDS011;73829;53.826;-3.034;2024-02-26T01:50:58;3.80;;;1.20;;
83814;SDS011;73829;53.826;-3.034;2024-02-26T01:53:29;4.10;;;1.30;;
83814;SDS011;73829;53.826;-3.034;2024-02-26T01:56:00;2.70;;;0.90;;
83814;SDS011;73829;53.826;-3.034;2024-02-26T01:58:32;3.70;;;1.40;;
83814;SDS011;73829;53.826;-3.034;2024-02-26T02:01:05;3.70;;;1.10;;
83814;SDS011;73829;53.826;-3.034;2024-02-26T02:03:37;3.20;;;1.10;;
83814;SDS011;73829;53.826;-3.034;2024-02-26T02:06:09;2.90;;;1.00;;
83814;SDS011;73829;53.826;-3.034;2024-02-26T02:08:41;2.90;;;1.30;;
83814;SDS011;73829;53.826;-3.034;2024-02-26T02:11:12;3.10;;;1.20;;
83814;SDS011;73829;53.826;-3.034;2024-02-26T02:13:44;2.50;;;0.90;;
83814;SDS011;73829;53.826;-3.034;2024-02-26T02:16:15;3.10;;;1.20;;
83814;SDS011;73829;53.826;-3.034;2024-02-26T02:18:46;2.20;;;0.80;;
83814;SDS011;73829;53.826;-3.034;2024-02-26T02:21:18;2.80;;;1.00;;
83814;SDS011;73829;53.826;-3.034;2024-02-26T02:23:49;3.00;;;1.00;;
83814;SDS011;73829;53.826;-3.034;2024-02-26T02:26:20;3.00;;;1.20;;
83814;SDS011;73829;53.826;-3.034;2024-02-26T02:28:51;2.70;;;0.90;;
83814;SDS011;73829;53.826;-3.034;2024-02-26T02:31:22;2.60;;;1.00;;
83814;SDS011;73829;53.826;-3.034;2024-02-26T02:33:53;2.80;;;0.90;;
83814;SDS011;73829;53.826;-3.034;2024-02-26T02:36:25;4.00;;;0.90;;
83814;SDS011;73829;53.826;-3.034;2024-02-26T02:38:56;2.10;;;0.80;;
83814;SDS011;73829;53.826;-3.034;2024-02-26T02:41:27;2.90;;;0.90;;
83814;SDS011;73829;53.826;-3.034;2024-02-26T02:43:59;2.60;;;0.80;;
83814;SDS011;73829;53.826;-3.034;2024-02-26T02:46:30;3.00;;;0.90;;
83814;SDS011;73829;53.826;-3.034;2024-02-26T02:49:03;2.20;;;0.80;;
83814;SDS011;73829;53.826;-3.034;2024-02-26T02:51:39;2.70;;;0.90;;
83814;SDS011;73829;53.826;-3.034;2024-02-26T02:54:11;2.30;;;0.80;;
83814;SDS011;73829;53.826;-3.034;2024-02-26T02:56:42;3.30;;;1.00;;
83814;SDS011;73829;53.826;-3.034;2024-02-26T02:59:13;3.10;;;1.10;;
83814;SDS011;73829;53.826;-3.034;2024-02-26T03:01:44;2.50;;;0.90;;
83814;SDS011;73829;53.826;-3.034;2024-02-26T03:04:15;2.50;;;1.00;;
83814;SDS011;73829;53.826;-3.034;2024-02-26T03:06:46;4.30;;;0.90;;
83814;SDS011;73829;53.826;-3.034;2024-02-26T03:09:17;2.40;;;1.00;;
83814;SDS011;73829;53.826;-3.034;2024-02-26T03:14:18;2.30;;;0.70;;
83814;SDS011;73829;53.826;-3.034;2024-02-26T03:16:49;2.40;;;0.90;;
83814;SDS011;73829;53.826;-3.034;2024-02-26T03:19:22;2.40;;;0.90;;
83814;SDS011;73829;53.826;-3.034;2024-02-26T03:21:53;2.30;;;0.80;;
83814;SDS011;73829;53.826;-3.034;2024-02-26T03:24:24;2.20;;;0.80;;
83814;SDS011;73829;53.826;-3.034;2024-02-26T03:26:56;2.90;;;1.00;;
83814;SDS011;73829;53.826;-3.034;2024-02-26T03:29:27;2.80;;;0.90;;
83814;SDS011;73829;53.826;-3.034;2024-02-26T03:31:59;2.20;;;0.80;;
83814;SDS011;73829;53.826;-3.034;2024-02-26T03:34:30;2.10;;;0.70;;
83814;SDS011;73829;53.826;-3.034;2024-02-26T03:37:02;2.60;;;0.80;;
83814;SDS011;73829;53.826;-3.034;2024-02-26T03:39:33;2.50;;;0.80;;
83814;SDS011;73829;53.826;-3.034;2024-02-26T03:42:05;3.30;;;0.90;;
83814;SDS011;73829;53.826;-3.034;2024-02-26T03:44:36;2.50;;;0.90;;
83814;SDS011;73829;53.826;-3.034;2024-02-26T03:47:07;2.00;;;0.80;;
83814;SDS011;73829;53.826;-3.034;2024-02-26T03:49:38;2.10;;;0.70;;
83814;SDS011;73829;53.826;-3.034;2024-02-26T03:52:09;2.30;;;0.90;;
83814;SDS011;73829;53.826;-3.034;2024-02-26T03:54:41;2.90;;;0.80;;
83814;SDS011;73829;53.826;-3.034;2024-02-26T03:57:12;2.90;;;0.90;;
83814;SDS011;73829;53.826;-3.034;2024-02-26T03:59:43;2.30;;;1.00;;
83814;SDS011;73829;53.826;-3.034;2024-02-26T04:02:14;2.50;;;1.00;;
83814;SDS011;73829;53.826;-3.034;2024-02-26T04:04:47;2.60;;;0.80;;
83814;SDS011;73829;53.826;-3.034;2024-02-26T04:07:18;2.20;;;0.70;;
83814;SDS011;73829;53.826;-3.034;2024-02-26T04:09:49;2.60;;;0.90;;
83814;SDS011;73829;53.826;-3.034;2024-02-26T04:12:20;2.80;;;0.80;;
83814;SDS011;73829;53.826;-3.034;2024-02-26T04:14:51;1.60;;;0.60;;
83814;SDS011;73829;53.826;-3.034;2024-02-26T04:17:22;2.10;;;0.80;;
83814;SDS011;73829;53.826;-3.034;2024-02-26T04:19:53;2.40;;;0.90;;
83814;SDS011;73829;53.826;-3.034;2024-02-26T04:22:24;2.50;;;0.80;;
83814;SDS011;73829;53.826;-3.034;2024-02-26T04:24:56;3.60;;;0.90;;
83814;SDS011;73829;53.826;-3.034;2024-02-26T04:27:27;2.70;;;0.90;;
83814;SDS011;73829;53.826;-3.034;2024-02-26T04:29:58;2.40;;;0.80;;
83814;SDS011;73829;53.826;-3.034;2024-02-26T04:32:29;2.20;;;0.80;;
83814;SDS011;73829;53.826;-3.034;2024-02-26T04:35:02;2.10;;;0.70;;
83814;SDS011;73829;53.826;-3.034;2024-02-26T04:37:33;2.40;;;0.80;;
83814;SDS011;73829;53.826;-3.034;2024-02-26T04:40:05;2.40;;;0.90;;
83814;SDS011;73829;53.826;-3.034;2024-02-26T04:42:37;2.70;;;0.80;;
83814;SDS011;73829;53.826;-3.034;2024-02-26T04:45:09;2.50;;;0.90;;
83814;SDS011;73829;53.826;-3.034;2024-02-26T04:47:40;2.30;;;0.90;;
83814;SDS011;73829;53.826;-3.034;2024-02-26T04:50:11;2.90;;;0.80;;
83814;SDS011;73829;53.826;-3.034;2024-02-26T04:52:42;2.10;;;0.70;;
83814;SDS011;73829;53.826;-3.034;2024-02-26T04:55:13;2.40;;;0.80;;
83814;SDS011;73829;53.826;-3.034;2024-02-26T04:57:44;2.10;;;0.80;;
83814;SDS011;73829;53.826;-3.034;2024-02-26T05:00:16;2.20;;;0.80;;
83814;SDS011;73829;53.826;-3.034;2024-02-26T05:02:47;2.20;;;0.90;;
83814;SDS011;73829;53.826;-3.034;2024-02-26T05:05:19;1.90;;;0.80;;
83814;SDS011;73829;53.826;-3.034;2024-02-26T05:07:50;2.20;;;0.90;;
83814;SDS011;73829;53.826;-3.034;2024-02-26T05:10:21;2.70;;;0.80;;
83814;SDS011;73829;53.826;-3.034;2024-02-26T05:12:53;2.50;;;0.90;;
83814;SDS011;73829;53.826;-3.034;2024-02-26T05:15:24;2.20;;;0.60;;
83814;SDS011;73829;53.826;-3.034;2024-02-26T05:17:55;2.50;;;0.70;;
83814;SDS011;73829;53.826;-3.034;2024-02-26T05:20:26;2.00;;;0.60;;
83814;SDS011;73829;53.826;-3.034;2024-02-26T05:22:58;2.20;;;0.80;;
83814;SDS011;73829;53.826;-3.034;2024-02-26T05:25:29;2.30;;;0.80;;
83814;SDS011;73829;53.826;-3.034;2024-02-26T05:28:00;2.20;;;0.70;;
83814;SDS011;73829;53.826;-3.034;2024-02-26T05:30:32;1.90;;;0.60;;
83814;SDS011;73829;53.826;-3.034;2024-02-26T05:33:03;2.50;;;0.80;;
83814;SDS011;73829;53.826;-3.034;2024-02-26T05:35:34;1.90;;;0.60;;
83814;SDS011;73829;53.826;-3.034;2024-02-26T05:38:06;1.60;;;0.60;;
83814;SDS011;73829;53.826;-3.034;2024-02-26T05:40:37;2.60;;;0.70;;
83814;SDS011;73829;53.826;-3.034;2024-02-26T05:43:08;2.50;;;0.70;;
83814;SDS011;73829;53.826;-3.034;2024-02-26T05:45:43;1.50;;;0.60;;
83814;SDS011;73829;53.826;-3.034;2024-02-26T05:48:14;2.90;;;0.80;;
83814;SDS011;73829;53.826;-3.034;2024-02-26T05:50:47;2.30;;;0.80;;
83814;SDS011;73829;53.826;-3.034;2024-02-26T05:53:18;2.60;;;0.60;;
83814;SDS011;73829;53.826;-3.034;2024-02-26T05:55:49;2.60;;;0.70;;
83814;SDS011;73829;53.826;-3.034;2024-02-26T05:58:20;1.40;;;0.60;;
83814;SDS011;73829;53.826;-3.034;2024-02-26T06:00:51;1.80;;;0.50;;
83814;SDS011;73829;53.826;-3.034;2024-02-26T06:03:22;1.30;;;0.60;;
83814;SDS011;73829;53.826;-3.034;2024-02-26T06:05:53;1.80;;;0.50;;
83814;SDS011;73829;53.826;-3.034;2024-02-26T06:08:25;2.20;;;0.50;;
83814;SDS011;73829;53.826;-3.034;2024-02-26T06:10:56;2.40;;;0.70;;
83814;SDS011;73829;53.826;-3.034;2024-02-26T06:13:27;2.30;;;0.70;;
83814;SDS011;73829;53.826;-3.034;2024-02-26T06:15:59;1.80;;;0.60;;
83814;SDS011;73829;53.826;-3.034;2024-02-26T06:18:30;1.80;;;0.70;;
83814;SDS011;73829;53.826;-3.034;2024-02-26T06:21:02;2.20;;;0.60;;
83814;SDS011;73829;53.826;-3.034;2024-02-26T06:23:38;1.40;;;0.50;;
83814;SDS011;73829;53.826;-3.034;2024-02-26T06:26:09;2.00;;;0.60;;
83814;SDS011;73829;53.826;-3.034;2024-02-26T06:28:40;1.70;;;0.50;;
83814;SDS011;73829;53.826;-3.034;2024-02-26T06:31:11;1.90;;;0.60;;
83814;SDS011;73829;53.826;-3.034;2024-02-26T06:33:42;2.00;;;0.70;;
83814;SDS011;73829;53.826;-3.034;2024-02-26T06:36:13;1.40;;;0.50;;
83814;SDS011;73829;53.826;-3.034;2024-02-26T06:38:47;1.30;;;0.50;;
83814;SDS011;73829;53.826;-3.034;2024-02-26T06:41:19;1.70;;;0.50;;
83814;SDS011;73829;53.826;-3.034;2024-02-26T06:43:55;1.50;;;0.50;;
83814;SDS011;73829;53.826;-3.034;2024-02-26T06:46:26;1.90;;;0.60;;
83814;SDS011;73829;53.826;-3.034;2024-02-26T06:48:58;1.50;;;0.60;;
83814;SDS011;73829;53.826;-3.034;2024-02-26T06:51:29;1.80;;;0.70;;
83814;SDS011;73829;53.826;-3.034;2024-02-26T06:54:00;2.10;;;0.50;;
83814;SDS011;73829;53.826;-3.034;2024-02-26T06:56:31;1.40;;;0.50;;
83814;SDS011;73829;53.826;-3.034;2024-02-26T06:59:02;1.20;;;0.50;;
83814;SDS011;73829;53.826;-3.034;2024-02-26T07:01:34;2.00;;;0.60;;
83814;SDS011;73829;53.826;-3.034;2024-02-26T07:04:05;1.90;;;0.60;;
83814;SDS011;73829;53.826;-3.034;2024-02-26T07:06:38;1.90;;;0.60;;
83814;SDS011;73829;53.826;-3.034;2024-02-26T07:09:09;1.50;;;0.50;;
83814;SDS011;73829;53.826;-3.034;2024-02-26T07:11:41;1.20;;;0.40;;
83814;SDS011;73829;53.826;-3.034;2024-02-26T07:14:12;1.40;;;0.50;;
83814;SDS011;73829;53.826;-3.034;2024-02-26T07:16:43;1.10;;;0.50;;
83814;SDS011;73829;53.826;-3.034;2024-02-26T07:19:15;1.30;;;0.50;;
83814;SDS011;73829;53.826;-3.034;2024-02-26T07:21:46;1.60;;;0.50;;
83814;SDS011;73829;53.826;-3.034;2024-02-26T07:24:17;1.70;;;0.50;;
83814;SDS011;73829;53.826;-3.034;2024-02-26T07:26:48;1.20;;;0.40;;
83814;SDS011;73829;53.826;-3.034;2024-02-26T07:29:22;1.60;;;0.40;;
83814;SDS011;73829;53.826;-3.034;2024-02-26T07:31:53;1.50;;;0.50;;
83814;SDS011;73829;53.826;-3.034;2024-02-26T07:34:24;1.50;;;0.50;;
83814;SDS011;73829;53.826;-3.034;2024-02-26T07:36:57;1.40;;;0.40;;
83814;SDS011;73829;53.826;-3.034;2024-02-26T07:39:28;1.50;;;0.50;;
83814;SDS011;73829;53.826;-3.034;2024-02-26T07:41:59;2.60;;;0.60;;
83814;SDS011;73829;53.826;-3.034;2024-02-26T07:44:30;1.80;;;0.60;;
83814;SDS011;73829;53.826;-3.034;2024-02-26T07:47:02;1.60;;;0.70;;
83814;SDS011;73829;53.826;-3.034;2024-02-26T07:49:33;1.50;;;0.50;;
83814;SDS011;73829;53.826;-3.034;2024-02-26T07:52:05;1.20;;;0.40;;
83814;SDS011;73829;53.826;-3.034;2024-02-26T07:54:36;1.10;;;0.50;;
83814;SDS011;73829;53.826;-3.034;2024-02-26T07:57:07;1.20;;;0.40;;
83814;SDS011;73829;53.826;-3.034;2024-02-26T07:59:40;1.70;;;0.50;;
83814;SDS011;73829;53.826;-3.034;2024-02-26T08:02:12;1.50;;;0.50;;
83814;SDS011;73829;53.826;-3.034;2024-02-26T08:04:44;1.40;;;0.50;;
83814;SDS011;73829;53.826;-3.034;2024-02-26T08:07:15;1.30;;;0.50;;
83814;SDS011;73829;53.826;-3.034;2024-02-26T08:09:47;1.80;;;0.40;;
83814;SDS011;73829;53.826;-3.034;2024-02-26T08:12:18;1.10;;;0.40;;
83814;SDS011;73829;53.826;-3.034;2024-02-26T08:14:49;1.50;;;0.50;;
83814;SDS011;73829;53.826;-3.034;2024-02-26T08:17:20;1.70;;;0.50;;
83814;SDS011;73829;53.826;-3.034;2024-02-26T08:19:51;1.80;;;0.60;;
83814;SDS011;73829;53.826;-3.034;2024-02-26T08:22:22;1.20;;;0.40;;
83814;SDS011;73829;53.826;-3.034;2024-02-26T08:24:53;1.50;;;0.40;;
83814;SDS011;73829;53.826;-3.034;2024-02-26T08:27:24;1.20;;;0.40;;
83814;SDS011;73829;53.826;-3.034;2024-02-26T08:29:55;2.30;;;0.50;;
83814;SDS011;73829;53.826;-3.034;2024-02-26T08:32:27;1.00;;;0.40;;
83814;SDS011;73829;53.826;-3.034;2024-02-26T08:34:58;1.80;;;0.60;;
83814;SDS011;73829;53.826;-3.034;2024-02-26T08:37:29;1.10;;;0.40;;
83814;SDS011;73829;53.826;-3.034;2024-02-26T08:40:00;1.70;;;0.50;;
83814;SDS011;73829;53.826;-3.034;2024-02-26T08:42:31;1.30;;;0.50;;
83814;SDS011;73829;53.826;-3.034;2024-02-26T08:45:03;1.00;;;0.30;;
83814;SDS011;73829;53.826;-3.034;2024-02-26T08:47:35;1.70;;;0.50;;
83814;SDS011;73829;53.826;-3.034;2024-02-26T08:50:07;1.40;;;0.50;;
83814;SDS011;73829;53.826;-3.034;2024-02-26T08:52:39;1.50;;;0.30;;
83814;SDS011;73829;53.826;-3.034;2024-02-26T08:55:12;1.80;;;0.40;;
83814;SDS011;73829;53.826;-3.034;2024-02-26T08:57:43;0.90;;;0.30;;
83814;SDS011;73829;53.826;-3.034;2024-02-26T09:00:14;0.70;;;0.30;;
83814;SDS011;73829;53.826;-3.034;2024-02-26T09:02:48;1.60;;;0.50;;
83814;SDS011;73829;53.826;-3.034;2024-02-26T09:05:19;1.70;;;0.40;;
83814;SDS011;73829;53.826;-3.034;2024-02-26T09:07:50;0.90;;;0.30;;
83814;SDS011;73829;53.826;-3.034;2024-02-26T09:10:23;1.70;;;0.50;;
83814;SDS011;73829;53.826;-3.034;2024-02-26T09:12:54;1.60;;;0.30;;
83814;SDS011;73829;53.826;-3.034;2024-02-26T09:15:25;1.60;;;0.50;;
83814;SDS011;73829;53.826;-3.034;2024-02-26T09:17:56;1.60;;;0.50;;
83814;SDS011;73829;53.826;-3.034;2024-02-26T09:20:27;1.50;;;0.50;;
83814;SDS011;73829;53.826;-3.034;2024-02-26T09:22:58;0.60;;;0.20;;
83814;SDS011;73829;53.826;-3.034;2024-02-26T09:25:30;1.30;;;0.40;;
83814;SDS011;73829;53.826;-3.034;2024-02-26T09:28:02;1.40;;;0.40;;
83814;SDS011;73829;53.826;-3.034;2024-02-26T09:30:33;1.30;;;0.40;;
83814;SDS011;73829;53.826;-3.034;2024-02-26T09:33:05;1.40;;;0.40;;
83814;SDS011;73829;53.826;-3.034;2024-02-26T09:35:36;1.90;;;0.40;;
83814;SDS011;73829;53.826;-3.034;2024-02-26T09:38:07;1.70;;;0.30;;
83814;SDS011;73829;53.826;-3.034;2024-02-26T09:40:38;1.10;;;0.60;;
83814;SDS011;73829;53.826;-3.034;2024-02-26T09:43:10;6.00;;;0.60;;
83814;SDS011;73829;53.826;-3.034;2024-02-26T09:45:46;3.20;;;0.70;;
83814;SDS011;73829;53.826;-3.034;2024-02-26T09:48:19;2.40;;;0.60;;
83814;SDS011;73829;53.826;-3.034;2024-02-26T09:50:51;3.00;;;0.60;;
83814;SDS011;73829;53.826;-3.034;2024-02-26T09:53:23;2.00;;;0.60;;
83814;SDS011;73829;53.826;-3.034;2024-02-26T09:55:54;1.90;;;0.50;;
83814;SDS011;73829;53.826;-3.034;2024-02-26T09:58:26;2.30;;;0.40;;
83814;SDS011;73829;53.826;-3.034;2024-02-26T10:00:58;5.40;;;0.70;;
83814;SDS011;73829;53.826;-3.034;2024-02-26T10:03:34;2.80;;;0.60;;
83814;SDS011;73829;53.826;-3.034;2024-02-26T10:06:08;3.30;;;0.60;;
83814;SDS011;73829;53.826;-3.034;2024-02-26T10:08:39;2.40;;;0.60;;
83814;SDS011;73829;53.826;-3.034;2024-02-26T10:11:11;2.80;;;0.50;;
83814;SDS011;73829;53.826;-3.034;2024-02-26T10:13:44;2.60;;;0.70;;
83814;SDS011;73829;53.826;-3.034;2024-02-26T10:16:15;4.20;;;0.90;;
83814;SDS011;73829;53.826;-3.034;2024-02-26T10:18:47;3.90;;;0.50;;
83814;SDS011;73829;53.826;-3.034;2024-02-26T10:21:20;4.40;;;0.70;;
83814;SDS011;73829;53.826;-3.034;2024-02-26T10:23:51;1.90;;;0.50;;
83814;SDS011;73829;53.826;-3.034;2024-02-26T10:26:22;1.10;;;0.40;;
83814;SDS011;73829;53.826;-3.034;2024-02-26T10:28:53;2.00;;;0.40;;
83814;SDS011;73829;53.826;-3.034;2024-02-26T10:31:31;2.50;;;0.60;;
83814;SDS011;73829;53.826;-3.034;2024-02-26T10:34:02;1.80;;;0.50;;
83814;SDS011;73829;53.826;-3.034;2024-02-26T10:36:35;2.80;;;0.60;;
83814;SDS011;73829;53.826;-3.034;2024-02-26T10:39:08;4.00;;;0.60;;
83814;SDS011;73829;53.826;-3.034;2024-02-26T10:41:42;3.50;;;0.80;;
83814;SDS011;73829;53.826;-3.034;2024-02-26T10:44:13;4.10;;;0.70;;
83814;SDS011;73829;53.826;-3.034;2024-02-26T10:46:45;2.00;;;0.50;;
83814;SDS011;73829;53.826;-3.034;2024-02-26T10:49:17;4.60;;;0.60;;
83814;SDS011;73829;53.826;-3.034;2024-02-26T10:51:51;3.80;;;0.60;;
83814;SDS011;73829;53.826;-3.034;2024-02-26T10:54:25;2.50;;;0.50;;
83814;SDS011;73829;53.826;-3.034;2024-02-26T10:56:58;2.70;;;0.50;;
83814;SDS011;73829;53.826;-3.034;2024-02-26T10:59:30;4.60;;;0.50;;
83814;SDS011;73829;53.826;-3.034;2024-02-26T11:02:04;4.00;;;0.60;;
83814;SDS011;73829;53.826;-3.034;2024-02-26T11:04:37;2.20;;;0.50;;
83814;SDS011;73829;53.826;-3.034;2024-02-26T11:07:09;2.60;;;0.50;;
83814;SDS011;73829;53.826;-3.034;2024-02-26T11:09:41;2.00;;;0.50;;
83814;SDS011;73829;53.826;-3.034;2024-02-26T11:12:14;3.70;;;0.80;;
83814;SDS011;73829;53.826;-3.034;2024-02-26T11:14:47;3.30;;;0.60;;
83814;SDS011;73829;53.826;-3.034;2024-02-26T11:17:22;4.50;;;1.10;;
83814;SDS011;73829;53.826;-3.034;2024-02-26T11:19:56;4.30;;;1.10;;
83814;SDS011;73829;53.826;-3.034;2024-02-26T11:22:30;7.30;;;1.10;;
83814;SDS011;73829;53.826;-3.034;2024-02-26T11:25:01;7.60;;;1.70;;
83814;SDS011;73829;53.826;-3.034;2024-02-26T11:27:34;7.20;;;1.10;;
83814;SDS011;73829;53.826;-3.034;2024-02-26T11:30:10;5.00;;;1.10;;
83814;SDS011;73829;53.826;-3.034;2024-02-26T11:32:45;4.10;;;1.00;;
83814;SDS011;73829;53.826;-3.034;2024-02-26T11:35:17;4.00;;;1.00;;
83814;SDS011;73829;53.826;-3.034;2024-02-26T11:37:54;3.70;;;0.90;;
83814;SDS011;73829;53.826;-3.034;2024-02-26T11:40:26;4.10;;;1.10;;
83814;SDS011;73829;53.826;-3.034;2024-02-26T11:42:57;7.20;;;0.90;;
83814;SDS011;73829;53.826;-3.034;2024-02-26T11:48:28;8.90;;;1.60;;
83814;SDS011;73829;53.826;-3.034;2024-02-26T11:50:59;5.60;;;1.10;;
83814;SDS011;73829;53.826;-3.034;2024-02-26T11:53:34;10.60;;;1.60;;
83814;SDS011;73829;53.826;-3.034;2024-02-26T11:56:25;5.30;;;1.20;;
83814;SDS011;73829;53.826;-3.034;2024-02-26T11:59:01;8.40;;;1.40;;
83814;SDS011;73829;53.826;-3.034;2024-02-26T12:01:38;7.30;;;1.50;;
83814;SDS011;73829;53.826;-3.034;2024-02-26T12:04:12;9.10;;;1.40;;
83814;SDS011;73829;53.826;-3.034;2024-02-26T12:06:46;9.00;;;1.20;;
83814;SDS011;73829;53.826;-3.034;2024-02-26T12:09:32;6.30;;;1.90;;
83814;SDS011;73829;53.826;-3.034;2024-02-26T12:12:05;7.10;;;1.40;;
83814;SDS011;73829;53.826;-3.034;2024-02-26T12:14:51;9.10;;;1.70;;
83814;SDS011;73829;53.826;-3.034;2024-02-26T12:17:24;7.30;;;1.20;;
83814;SDS011;73829;53.826;-3.034;2024-02-26T12:19:56;8.90;;;1.50;;
83814;SDS011;73829;53.826;-3.034;2024-02-26T12:22:40;7.00;;;1.10;;
83814;SDS011;73829;53.826;-3.034;2024-02-26T12:25:13;7.00;;;1.10;;
83814;SDS011;73829;53.826;-3.034;2024-02-26T12:27:45;6.00;;;1.10;;
83814;SDS011;73829;53.826;-3.034;2024-02-26T12:30:16;7.50;;;1.30;;
83814;SDS011;73829;53.826;-3.034;2024-02-26T12:32:48;6.50;;;1.10;;
83814;SDS011;73829;53.826;-3.034;2024-02-26T12:35:19;5.20;;;1.00;;
83814;SDS011;73829;53.826;-3.034;2024-02-26T12:37:50;5.50;;;1.10;;
83814;SDS011;73829;53.826;-3.034;2024-02-26T12:40:22;7.10;;;1.50;;
83814;SDS011;73829;53.826;-3.034;2024-02-26T12:42:54;4.40;;;1.30;;
83814;SDS011;73829;53.826;-3.034;2024-02-26T12:45:25;7.20;;;2.10;;
83814;SDS011;73829;53.826;-3.034;2024-02-26T12:47:57;7.30;;;1.40;;
83814;SDS011;73829;53.826;-3.034;2024-02-26T12:50:30;5.80;;;1.70;;
83814;SDS011;73829;53.826;-3.034;2024-02-26T12:53:01;7.20;;;2.00;;
83814;SDS011;73829;53.826;-3.034;2024-02-26T12:55:33;6.30;;;2.10;;
83814;SDS011;73829;53.826;-3.034;2024-02-26T12:58:07;7.50;;;1.80;;
83814;SDS011;73829;53.826;-3.034;2024-02-26T13:00:39;6.60;;;2.20;;
83814;SDS011;73829;53.826;-3.034;2024-02-26T13:03:10;10.10;;;2.60;;
83814;SDS011;73829;53.826;-3.034;2024-02-26T13:05:41;7.30;;;2.20;;
83814;SDS011;73829;53.826;-3.034;2024-02-26T13:08:18;6.20;;;2.10;;
83814;SDS011;73829;53.826;-3.034;2024-02-26T13:10:50;10.70;;;2.00;;
83814;SDS011;73829;53.826;-3.034;2024-02-26T13:13:22;7.90;;;2.20;;
83814;SDS011;73829;53.826;-3.034;2024-02-26T13:16:02;6.60;;;2.00;;
83814;SDS011;73829;53.826;-3.034;2024-02-26T13:18:35;6.40;;;2.30;;
83814;SDS011;73829;53.826;-3.034;2024-02-26T13:23:38;5.70;;;1.80;;
83814;SDS011;73829;53.826;-3.034;2024-02-26T13:26:11;7.00;;;2.60;;
83814;SDS011;73829;53.826;-3.034;2024-02-26T13:28:43;7.70;;;2.50;;
83814;SDS011;73829;53.826;-3.034;2024-02-26T13:31:14;5.60;;;2.70;;
83814;SDS011;73829;53.826;-3.034;2024-02-26T13:33:45;6.70;;;2.20;;
83814;SDS011;73829;53.826;-3.034;2024-02-26T13:36:18;5.50;;;1.90;;
83814;SDS011;73829;53.826;-3.034;2024-02-26T13:38:52;6.90;;;2.10;;
83814;SDS011;73829;53.826;-3.034;2024-02-26T13:41:24;7.30;;;2.70;;
83814;SDS011;73829;53.826;-3.034;2024-02-26T13:43:55;5.30;;;1.90;;
83814;SDS011;73829;53.826;-3.034;2024-02-26T13:46:26;5.80;;;2.40;;
83814;SDS011;73829;53.826;-3.034;2024-02-26T13:48:57;8.00;;;2.00;;
83814;SDS011;73829;53.826;-3.034;2024-02-26T13:51:28;5.10;;;1.90;;
83814;SDS011;73829;53.826;-3.034;2024-02-26T13:54:03;5.00;;;2.00;;
83814;SDS011;73829;53.826;-3.034;2024-02-26T13:56:34;7.70;;;2.20;;
83814;SDS011;73829;53.826;-3.034;2024-02-26T13:59:05;6.80;;;2.60;;
83814;SDS011;73829;53.826;-3.034;2024-02-26T14:01:36;7.50;;;2.20;;
83814;SDS011;73829;53.826;-3.034;2024-02-26T14:04:07;5.90;;;2.00;;
83814;SDS011;73829;53.826;-3.034;2024-02-26T14:06:38;7.70;;;2.00;;
83814;SDS011;73829;53.826;-3.034;2024-02-26T14:09:09;8.60;;;2.30;;
83814;SDS011;73829;53.826;-3.034;2024-02-26T14:11:46;6.80;;;2.00;;
83814;SDS011;73829;53.826;-3.034;2024-02-26T14:14:17;7.00;;;2.10;;
83814;SDS011;73829;53.826;-3.034;2024-02-26T14:16:48;9.90;;;2.10;;
83814;SDS011;73829;53.826;-3.034;2024-02-26T14:19:20;4.90;;;2.00;;
83814;SDS011;73829;53.826;-3.034;2024-02-26T14:21:51;10.40;;;2.30;;
83814;SDS011;73829;53.826;-3.034;2024-02-26T14:24:22;7.50;;;1.90;;
83814;SDS011;73829;53.826;-3.034;2024-02-26T14:26:53;12.90;;;2.10;;
83814;SDS011;73829;53.826;-3.034;2024-02-26T14:29:24;5.20;;;1.90;;
83814;SDS011;73829;53.826;-3.034;2024-02-26T14:31:55;7.90;;;1.70;;
83814;SDS011;73829;53.826;-3.034;2024-02-26T14:34:26;5.40;;;1.50;;
83814;SDS011;73829;53.826;-3.034;2024-02-26T14:36:57;9.90;;;2.10;;
83814;SDS011;73829;53.826;-3.034;2024-02-26T14:39:28;6.90;;;1.90;;
83814;SDS011;73829;53.826;-3.034;2024-02-26T14:42:00;8.00;;;2.20;;
83814;SDS011;73829;53.826;-3.034;2024-02-26T14:44:32;10.70;;;2.10;;
83814;SDS011;73829;53.826;-3.034;2024-02-26T14:47:03;9.50;;;1.90;;
83814;SDS011;73829;53.826;-3.034;2024-02-26T14:49:34;5.90;;;1.50;;
83814;SDS011;73829;53.826;-3.034;2024-02-26T14:52:06;8.30;;;2.60;;
83814;SDS011;73829;53.826;-3.034;2024-02-26T14:54:37;5.70;;;1.90;;
83814;SDS011;73829;53.826;-3.034;2024-02-26T14:57:09;8.60;;;1.80;;
83814;SDS011;73829;53.826;-3.034;2024-02-26T14:59:40;7.20;;;2.00;;
83814;SDS011;73829;53.826;-3.034;2024-02-26T15:02:11;8.40;;;1.90;;
83814;SDS011;73829;53.826;-3.034;2024-02-26T15:04:43;8.30;;;1.90;;
83814;SDS011;73829;53.826;-3.034;2024-02-26T15:07:15;5.80;;;1.90;;
83814;SDS011;73829;53.826;-3.034;2024-02-26T15:09:47;4.90;;;1.90;;